Time;durP1;ratioP1;P1;durP2;ratioP2;P2;SDS_P1;SDS_P2;PMS_P1;PMS_P2;Temp;Humidity;BMP_temperature;BMP_pressure;BME280_temperature;BME280_humidity;BME280_pressure;Samples;Min_cycle;Max_cycle;Signal;HPM_P1;HPM_P2
2021/11/30 10:45:40;;;;;;;;;;;20.40;28.00;;;;;;478405;246;1116;-59
2021/11/30 10:47:40;;;;;;;;;;;20.30;28.00;;;;;;471101;251;1842;-62
2021/11/30 10:49:42;;;;;;;;;;;20.30;28.00;;;;;;478277;247;1043;-60
2021/11/30 10:51:43;;;;;;;;;;;20.30;28.10;;;;;;471001;251;1312;-61
2021/11/30 10:53:45;;;;;;;;;;;20.30;28.00;;;;;;478268;247;1195;-59
2021/11/30 10:55:46;;;;;;;;;;;20.40;27.90;;;;;;471072;251;1181;-59
2021/11/30 10:57:48;;;;;;;;;;;20.50;27.80;;;;;;478232;247;1152;-59
2021/11/30 10:59:49;;;;;;;;;;;20.70;27.70;;;;;;471178;251;2124;-58
2021/11/30 11:01:51;;;;;;;;;;;20.80;27.60;;;;;;478236;247;1185;-59
2021/11/30 11:03:52;;;;;;;;;;;20.80;27.50;;;;;;471206;251;1116;-59
2021/11/30 11:08:14;;;;;;;;;;;20.80;27.60;;;;;;471120;252;1399;-59
2021/11/30 11:10:15;;;;;;;;;;;20.80;27.60;;;;;;478097;247;1250;-58
2021/11/30 11:12:16;;;;;;;;;;;20.80;27.60;;;;;;471140;250;1096;-58
2021/11/30 11:14:20;;;;;;;;;;;20.90;27.50;;;;;;478125;247;1032;-58
2021/11/30 11:16:20;;;;;;;;;;;20.90;27.50;;;;;;470765;248;2001;-59
2021/11/30 11:18:21;;;;;;;;;;;20.90;27.50;;;;;;478114;247;1072;-59
2021/11/30 11:20:23;;;;;;;;;;;20.90;27.50;;;;;;471017;250;2211;-59
2021/11/30 11:22:24;;;;;;;;;;;20.90;27.50;;;;;;478162;247;1073;-59
2021/11/30 11:24:25;;;;;;;;;;;20.90;27.60;;;;;;471062;250;1010;-59
2021/11/30 11:26:28;;;;;;;;;;;20.90;27.50;;;;;;478239;247;1231;-58
2021/11/30 11:28:28;;;;;;;;;;;20.80;27.60;;;;;;471061;250;2099;-58
2021/11/30 11:30:29;;;;;;;;;;;21.00;27.50;;;;;;478227;247;1130;-59
2021/11/30 11:32:31;;;;;;;;;;;20.90;27.50;;;;;;471411;250;1067;-59
2021/11/30 11:34:32;;;;;;;;;;;21.00;27.50;;;;;;478205;247;1103;-59
2021/11/30 11:36:33;;;;;;;;;;;20.90;27.50;;;;;;471225;250;1214;-59
2021/11/30 11:38:35;;;;;;;;;;;21.00;27.50;;;;;;478323;247;981;-59
2021/11/30 11:40:36;;;;;;;;;;;21.00;27.50;;;;;;471069;250;2181;-59
2021/11/30 11:42:38;;;;;;;;;;;20.90;27.50;;;;;;478058;247;1084;-60
2021/11/30 11:44:39;;;;;;;;;;;20.90;27.60;;;;;;470993;250;1067;-59
2021/11/30 11:46:40;;;;;;;;;;;20.90;27.60;;;;;;478190;247;1313;-59
2021/11/30 11:48:42;;;;;;;;;;;20.90;27.50;;;;;;471116;250;1088;-59
2021/11/30 11:50:43;;;;;;;;;;;20.90;27.60;;;;;;478281;247;1247;-59
2021/11/30 11:52:44;;;;;;;;;;;20.80;27.60;;;;;;471070;251;1263;-59
2021/11/30 11:54:46;;;;;;;;;;;20.90;27.50;;;;;;478226;247;1089;-59
2021/11/30 11:56:47;;;;;;;;;;;20.90;27.60;;;;;;471087;251;1193;-59
2021/11/30 11:58:48;;;;;;;;;;;21.00;27.50;;;;;;478046;247;2206;-59
2021/11/30 12:00:55;;;;;;;;;;;21.00;27.50;;;;;;470829;251;1208;-59
2021/11/30 12:02:51;;;;;;;;;;;21.00;27.50;;;;;;477807;248;2145;-59
2021/11/30 12:04:53;;;;;;;;;;;21.00;27.50;;;;;;471094;250;1081;-59
2021/11/30 12:06:57;;;;;;;;;;;21.00;27.50;;;;;;478217;247;1220;-59
2021/11/30 12:08:55;;;;;;;;;;;21.00;27.50;;;;;;471023;252;2175;-59
2021/11/30 12:10:57;;;;;;;;;;;21.00;27.60;;;;;;478676;247;1493;-59
2021/11/30 12:12:58;;;;;;;;;;;21.00;27.60;;;;;;471311;251;2063;-59
2021/11/30 12:14:59;;;;;;;;;;;21.00;27.60;;;;;;478111;247;1049;-59
2021/11/30 12:17:01;;;;;;;;;;;21.00;27.50;;;;;;470899;251;1151;-59
2021/11/30 12:19:02;;;;;;;;;;;21.00;27.60;;;;;;478056;247;2865;-58
2021/11/30 12:21:03;;;;;;;;;;;21.00;27.60;;;;;;470923;250;1210;-59
2021/11/30 12:23:05;;;;;;;;;;;20.90;27.60;;;;;;478178;247;1068;-59
2021/11/30 12:25:06;;;;;;;;;;;21.00;27.60;;;;;;470972;251;1374;-59
2021/11/30 12:27:07;;;;;;;;;;;21.00;27.50;;;;;;477992;247;1136;-59
2021/11/30 12:29:09;;;;;;;;;;;21.00;27.60;;;;;;470954;251;1081;-59
2021/11/30 12:31:10;;;;;;;;;;;21.10;27.50;;;;;;478018;247;1328;-59
2021/11/30 12:33:11;;;;;;;;;;;21.00;27.50;;;;;;471007;251;1193;-59
2021/11/30 12:35:14;;;;;;;;;;;21.00;27.60;;;;;;478156;247;1028;-59
2021/11/30 12:37:15;;;;;;;;;;;21.00;27.60;;;;;;470950;251;1487;-59
2021/11/30 12:39:18;;;;;;;;;;;21.00;27.70;;;;;;477988;247;2191;-59
2021/11/30 12:41:17;;;;;;;;;;;21.00;27.60;;;;;;470698;252;1809;-59
2021/11/30 12:43:22;;;;;;;;;;;21.00;27.60;;;;;;478030;247;1390;-58
2021/11/30 12:45:20;;;;;;;;;;;21.00;27.60;;;;;;470595;252;2144;-59
2021/11/30 12:47:21;;;;;;;;;;;21.00;27.60;;;;;;478069;247;1180;-59
2021/11/30 12:49:23;;;;;;;;;;;21.10;27.60;;;;;;471176;251;1082;-59
2021/11/30 12:51:24;;;;;;;;;;;21.00;27.60;;;;;;478058;247;1186;-59
2021/11/30 12:53:25;;;;;;;;;;;21.00;27.70;;;;;;470959;251;1233;-59
2021/11/30 12:55:27;;;;;;;;;;;21.00;27.60;;;;;;478085;247;1035;-59
2021/11/30 12:57:28;;;;;;;;;;;21.10;27.60;;;;;;471085;250;1306;-59
2021/11/30 12:59:29;;;;;;;;;;;21.10;27.60;;;;;;478204;247;2131;-59
2021/11/30 13:01:30;;;;;;;;;;;21.10;27.60;;;;;;470956;251;1245;-59
2021/11/30 13:03:32;;;;;;;;;;;21.00;27.70;;;;;;478114;247;1226;-59
2021/11/30 13:05:35;;;;;;;;;;;21.00;27.70;;;;;;471116;251;1196;-59
2021/11/30 13:07:36;;;;;;;;;;;21.10;27.70;;;;;;478066;248;1360;-59
2021/11/30 13:09:36;;;;;;;;;;;21.20;27.60;;;;;;470894;252;2130;-59
2021/11/30 13:11:37;;;;;;;;;;;21.30;27.50;;;;;;478011;247;1146;-59
2021/11/30 13:13:39;;;;;;;;;;;21.40;27.50;;;;;;470876;250;1084;-59
2021/11/30 13:15:40;;;;;;;;;;;21.50;27.30;;;;;;477871;247;1148;-59
2021/11/30 13:17:42;;;;;;;;;;;21.60;27.30;;;;;;470847;251;1116;-59
2021/11/30 13:19:44;;;;;;;;;;;21.60;27.30;;;;;;478171;247;2483;-59
2021/11/30 13:21:45;;;;;;;;;;;21.60;27.20;;;;;;470969;250;1159;-59
2021/11/30 13:23:46;;;;;;;;;;;21.60;27.30;;;;;;478130;247;1050;-59
2021/11/30 13:25:48;;;;;;;;;;;21.60;27.30;;;;;;470890;250;1397;-59
2021/11/30 13:27:49;;;;;;;;;;;21.70;27.20;;;;;;478042;247;1388;-59
2021/11/30 13:29:50;;;;;;;;;;;21.80;27.20;;;;;;471142;251;1055;-59
2021/11/30 13:31:52;;;;;;;;;;;21.80;27.20;;;;;;478264;247;1200;-59
2021/11/30 13:33:53;;;;;;;;;;;21.80;27.10;;;;;;471058;251;1193;-59
2021/11/30 13:35:54;;;;;;;;;;;21.80;27.20;;;;;;478165;247;1156;-59
2021/11/30 13:37:56;;;;;;;;;;;21.80;27.20;;;;;;471027;251;1121;-59
2021/11/30 13:39:57;;;;;;;;;;;21.80;27.20;;;;;;478187;247;2187;-59
2021/11/30 13:41:58;;;;;;;;;;;21.80;27.20;;;;;;471024;250;1169;-59
2021/11/30 13:44:00;;;;;;;;;;;21.80;27.20;;;;;;478119;247;1043;-59
2021/11/30 13:46:01;;;;;;;;;;;21.80;27.20;;;;;;470909;251;1433;-60
2021/11/30 13:48:02;;;;;;;;;;;21.80;27.20;;;;;;478117;247;1220;-59
2021/11/30 13:50:04;;;;;;;;;;;21.70;27.20;;;;;;470966;250;1072;-59
2021/11/30 13:52:05;;;;;;;;;;;21.70;27.20;;;;;;477882;247;1214;-59
2021/11/30 13:54:06;;;;;;;;;;;21.70;27.20;;;;;;470920;250;1062;-59
2021/11/30 13:56:08;;;;;;;;;;;21.80;27.20;;;;;;478113;247;1280;-59
2021/11/30 13:58:15;;;;;;;;;;;21.80;27.10;;;;;;471027;250;1085;-59
2021/11/30 14:00:16;;;;;;;;;;;21.90;27.10;;;;;;478062;249;2225;-59
2021/11/30 14:02:16;;;;;;;;;;;21.90;27.10;;;;;;471014;252;1823;-59
2021/11/30 14:04:17;;;;;;;;;;;21.90;27.10;;;;;;478294;247;1244;-59
2021/11/30 14:06:18;;;;;;;;;;;21.90;27.10;;;;;;471139;250;1144;-59
2021/11/30 14:08:19;;;;;;;;;;;21.90;27.10;;;;;;478220;247;1213;-59
2021/11/30 14:10:21;;;;;;;;;;;21.90;27.10;;;;;;470321;250;1067;-59
2021/11/30 14:12:22;;;;;;;;;;;21.90;27.10;;;;;;478117;247;1191;-59
2021/11/30 14:14:24;;;;;;;;;;;21.90;27.10;;;;;;471066;251;1100;-59
2021/11/30 14:16:25;;;;;;;;;;;21.90;27.10;;;;;;477970;247;1367;-59
2021/11/30 14:18:26;;;;;;;;;;;21.90;27.10;;;;;;470909;251;1159;-59
2021/11/30 14:20:27;;;;;;;;;;;21.80;27.10;;;;;;477781;247;2191;-59
2021/11/30 14:22:29;;;;;;;;;;;21.90;27.10;;;;;;470648;251;1244;-59
2021/11/30 14:24:31;;;;;;;;;;;21.90;27.10;;;;;;478146;247;1371;-59
2021/11/30 14:26:32;;;;;;;;;;;22.00;27.00;;;;;;470911;250;1273;-59
2021/11/30 14:28:33;;;;;;;;;;;21.90;27.10;;;;;;478206;247;1049;-59
2021/11/30 14:30:35;;;;;;;;;;;22.10;27.00;;;;;;471036;250;1074;-59
2021/11/30 14:32:36;;;;;;;;;;;22.00;27.00;;;;;;478197;247;1217;-59
2021/11/30 14:34:38;;;;;;;;;;;22.00;27.00;;;;;;471164;250;1246;-59
2021/11/30 14:36:39;;;;;;;;;;;22.00;27.00;;;;;;478214;247;1223;-59
2021/11/30 14:38:43;;;;;;;;;;;22.00;27.00;;;;;;471116;251;1104;-59
2021/11/30 14:40:42;;;;;;;;;;;22.00;27.00;;;;;;478135;248;2195;-59
2021/11/30 14:42:43;;;;;;;;;;;22.00;27.10;;;;;;471329;251;1138;-59
2021/11/30 14:44:44;;;;;;;;;;;22.00;27.10;;;;;;478370;247;1113;-59
2021/11/30 14:46:46;;;;;;;;;;;22.00;27.10;;;;;;470934;251;1347;-59
2021/11/30 14:48:47;;;;;;;;;;;22.00;27.10;;;;;;477316;247;1159;-60
2021/11/30 14:50:48;;;;;;;;;;;21.90;27.10;;;;;;471077;251;1114;-59
2021/11/30 14:52:50;;;;;;;;;;;22.00;27.10;;;;;;478184;245;1371;-58
2021/11/30 14:54:51;;;;;;;;;;;21.90;27.10;;;;;;471094;251;1335;-59
2021/11/30 14:56:54;;;;;;;;;;;22.00;27.20;;;;;;478145;247;1466;-60
2021/11/30 14:58:54;;;;;;;;;;;21.90;27.20;;;;;;470947;252;2185;-60
2021/11/30 15:00:55;;;;;;;;;;;22.00;27.10;;;;;;478202;247;2194;-59
2021/11/30 15:02:56;;;;;;;;;;;21.90;27.20;;;;;;470938;251;1136;-59
2021/11/30 15:04:58;;;;;;;;;;;21.90;27.10;;;;;;478171;247;1166;-59
2021/11/30 15:06:59;;;;;;;;;;;21.90;27.10;;;;;;470974;251;1427;-59
2021/11/30 15:09:00;;;;;;;;;;;21.90;27.20;;;;;;478003;247;1143;-59
2021/11/30 15:11:02;;;;;;;;;;;21.90;27.20;;;;;;470664;251;1367;-59
2021/11/30 15:13:03;;;;;;;;;;;21.90;27.20;;;;;;478011;247;1178;-59
2021/11/30 15:15:04;;;;;;;;;;;21.90;27.20;;;;;;470798;251;1234;-59
2021/11/30 15:17:06;;;;;;;;;;;21.90;27.10;;;;;;477903;247;1220;-59
2021/11/30 15:19:07;;;;;;;;;;;21.90;27.10;;;;;;470750;251;1126;-59
2021/11/30 15:21:09;;;;;;;;;;;22.00;27.10;;;;;;478010;247;2195;-58
2021/11/30 15:23:10;;;;;;;;;;;22.00;27.10;;;;;;470778;251;1077;-59
2021/11/30 15:25:13;;;;;;;;;;;22.00;27.00;;;;;;478034;247;1232;-59
2021/11/30 15:27:13;;;;;;;;;;;22.10;27.00;;;;;;470953;251;1370;-59
2021/11/30 15:29:14;;;;;;;;;;;22.10;27.00;;;;;;478250;247;1262;-59
2021/11/30 15:31:16;;;;;;;;;;;22.10;27.00;;;;;;471122;251;1213;-59
2021/11/30 15:33:17;;;;;;;;;;;22.10;27.00;;;;;;478157;247;1144;-59
2021/11/30 15:35:18;;;;;;;;;;;22.10;27.10;;;;;;470972;251;1233;-59
2021/11/30 15:37:19;;;;;;;;;;;22.10;27.10;;;;;;478163;247;1365;-58
2021/11/30 15:39:21;;;;;;;;;;;22.10;27.10;;;;;;471103;251;1077;-59
2021/11/30 15:41:22;;;;;;;;;;;22.10;27.10;;;;;;478153;247;2198;-59
2021/11/30 15:43:24;;;;;;;;;;;22.00;27.10;;;;;;471538;251;1058;-59
2021/11/30 15:45:25;;;;;;;;;;;22.00;27.10;;;;;;478210;247;1061;-60
2021/11/30 15:47:26;;;;;;;;;;;22.00;27.10;;;;;;471174;251;1247;-59
2021/11/30 15:49:28;;;;;;;;;;;22.10;27.20;;;;;;478181;247;1093;-59
2021/11/30 15:51:29;;;;;;;;;;;22.00;27.20;;;;;;471149;250;1309;-60
2021/11/30 15:53:31;;;;;;;;;;;22.10;27.10;;;;;;478352;247;1171;-59
2021/11/30 15:57:21;;;;;;;;;;;22.10;27.10;;;;;;471070;251;2135;-59
2021/11/30 15:57:36;;;;;;;;;;;22.20;27.10;;;;;;476998;249;1237;-59
2021/11/30 15:59:35;;;;;;;;;;;22.10;27.10;;;;;;470976;252;2139;-59
2021/11/30 16:01:36;;;;;;;;;;;22.10;27.10;;;;;;478254;247;2175;-60
2021/11/30 16:03:38;;;;;;;;;;;22.00;27.20;;;;;;471240;251;1089;-59
2021/11/30 16:05:39;;;;;;;;;;;22.00;27.20;;;;;;477969;247;1145;-59
2021/11/30 16:07:40;;;;;;;;;;;22.00;27.20;;;;;;470966;251;1385;-59
2021/11/30 16:09:42;;;;;;;;;;;22.10;27.30;;;;;;478297;247;1097;-59
2021/11/30 16:11:43;;;;;;;;;;;22.10;27.30;;;;;;471223;251;1349;-59
2021/11/30 16:13:47;;;;;;;;;;;22.10;27.30;;;;;;478375;247;1029;-59
2021/11/30 16:15:46;;;;;;;;;;;22.00;27.30;;;;;;471033;252;1908;-59
2021/11/30 16:17:48;;;;;;;;;;;21.90;27.40;;;;;;478450;247;1168;-59
2021/11/30 16:19:49;;;;;;;;;;;21.90;27.40;;;;;;471134;252;2327;-59
2021/11/30 16:21:52;;;;;;;;;;;21.80;27.40;;;;;;478349;247;2241;-60
2021/11/30 16:23:52;;;;;;;;;;;21.80;27.50;;;;;;471212;251;2131;-60
2021/11/30 16:25:53;;;;;;;;;;;21.80;27.50;;;;;;478387;247;1473;-59
2021/11/30 16:27:54;;;;;;;;;;;21.80;27.50;;;;;;471342;251;1218;-60
2021/11/30 16:29:55;;;;;;;;;;;21.80;27.50;;;;;;478409;247;1059;-58
2021/11/30 16:31:57;;;;;;;;;;;21.80;27.50;;;;;;471170;250;1229;-59
2021/11/30 16:34:01;;;;;;;;;;;21.80;27.60;;;;;;478357;247;1091;-59
2021/11/30 16:36:00;;;;;;;;;;;21.70;27.60;;;;;;471123;252;1474;-59
2021/11/30 16:38:01;;;;;;;;;;;21.70;27.60;;;;;;478350;247;1186;-58
2021/11/30 16:40:02;;;;;;;;;;;21.70;27.70;;;;;;471296;250;1262;-59
2021/11/30 16:42:04;;;;;;;;;;;21.80;27.60;;;;;;478410;247;2199;-58
2021/11/30 16:44:05;;;;;;;;;;;21.70;27.70;;;;;;471338;251;1044;-59
2021/11/30 16:46:07;;;;;;;;;;;21.70;27.70;;;;;;478513;247;1196;-59
2021/11/30 16:48:08;;;;;;;;;;;21.70;27.70;;;;;;471454;251;1199;-59
2021/11/30 16:50:09;;;;;;;;;;;21.60;27.80;;;;;;478507;247;1262;-59
2021/11/30 16:52:11;;;;;;;;;;;21.60;27.70;;;;;;471389;250;1086;-59
2021/11/30 16:54:12;;;;;;;;;;;21.60;27.70;;;;;;478466;247;1057;-59
2021/11/30 16:56:13;;;;;;;;;;;21.70;27.80;;;;;;471353;251;1230;-59
2021/11/30 16:58:15;;;;;;;;;;;21.60;27.80;;;;;;478418;247;1073;-59
2021/11/30 17:00:17;;;;;;;;;;;21.60;27.80;;;;;;471255;251;934;-59
2021/11/30 17:02:18;;;;;;;;;;;21.60;27.80;;;;;;478332;248;2190;-59
2021/11/30 17:04:19;;;;;;;;;;;21.60;27.90;;;;;;471177;251;1945;-59
2021/11/30 17:06:20;;;;;;;;;;;21.60;27.80;;;;;;478480;247;1321;-59
2021/11/30 17:08:21;;;;;;;;;;;21.70;27.90;;;;;;471329;251;1133;-59
2021/11/30 17:10:23;;;;;;;;;;;21.60;27.90;;;;;;478574;247;1065;-59
2021/11/30 17:12:24;;;;;;;;;;;21.60;27.90;;;;;;471346;251;1225;-59
2021/11/30 17:14:27;;;;;;;;;;;21.70;27.90;;;;;;478427;247;1045;-61
2021/11/30 17:16:28;;;;;;;;;;;21.60;28.00;;;;;;471418;250;1201;-59
2021/11/30 17:18:30;;;;;;;;;;;21.60;28.00;;;;;;478603;247;1083;-59
2021/11/30 17:20:31;;;;;;;;;;;21.60;28.00;;;;;;471395;251;1054;-59
2021/11/30 17:22:32;;;;;;;;;;;21.60;28.00;;;;;;478444;247;2186;-59
2021/11/30 17:24:40;;;;;;;;;;;21.60;28.10;;;;;;471466;251;990;-59
2021/11/30 17:26:35;;;;;;;;;;;21.60;28.10;;;;;;478150;248;2163;-59
2021/11/30 17:28:36;;;;;;;;;;;21.50;28.20;;;;;;471450;251;1088;-59
2021/11/30 17:30:38;;;;;;;;;;;21.50;28.20;;;;;;478703;247;1222;-59
2021/11/30 17:32:39;;;;;;;;;;;21.50;28.20;;;;;;471488;251;1201;-59
2021/11/30 17:34:40;;;;;;;;;;;21.60;28.30;;;;;;478516;247;1131;-58
2021/11/30 17:36:42;;;;;;;;;;;21.50;28.30;;;;;;471528;251;1182;-59
2021/11/30 17:38:43;;;;;;;;;;;21.50;28.30;;;;;;478591;247;1071;-59
2021/11/30 17:40:44;;;;;;;;;;;21.50;28.30;;;;;;471523;250;1454;-59
2021/11/30 17:42:46;;;;;;;;;;;21.50;28.30;;;;;;478626;247;2190;-59
2021/11/30 17:44:47;;;;;;;;;;;21.50;28.30;;;;;;471608;251;1055;-59
2021/11/30 17:46:50;;;;;;;;;;;21.60;28.40;;;;;;478710;247;1248;-59
2021/11/30 17:48:50;;;;;;;;;;;21.60;28.40;;;;;;471516;252;1576;-59
2021/11/30 17:50:51;;;;;;;;;;;21.50;28.40;;;;;;478674;247;1375;-59
2021/11/30 17:52:55;;;;;;;;;;;21.50;28.40;;;;;;471484;251;1250;-59
2021/11/30 17:54:55;;;;;;;;;;;21.50;28.40;;;;;;478704;247;1833;-59
2021/11/30 17:56:56;;;;;;;;;;;21.60;28.40;;;;;;471467;252;2173;-59
2021/11/30 17:58:57;;;;;;;;;;;21.60;28.40;;;;;;478782;247;1087;-59
2021/11/30 18:00:58;;;;;;;;;;;21.60;28.40;;;;;;471607;251;2205;-59
2021/11/30 18:03:00;;;;;;;;;;;21.60;28.40;;;;;;478895;247;1066;-59
2021/11/30 18:05:02;;;;;;;;;;;21.60;28.40;;;;;;471674;250;1069;-59
2021/11/30 18:07:04;;;;;;;;;;;21.60;28.40;;;;;;478688;247;1429;-59
2021/11/30 18:09:04;;;;;;;;;;;21.60;28.40;;;;;;471567;251;2308;-59
2021/11/30 18:11:05;;;;;;;;;;;21.60;28.40;;;;;;478683;247;1238;-59
2021/11/30 18:13:06;;;;;;;;;;;21.60;28.50;;;;;;471599;251;1219;-59
2021/11/30 18:15:08;;;;;;;;;;;21.60;28.50;;;;;;478788;247;1017;-59
2021/11/30 18:17:09;;;;;;;;;;;21.60;28.50;;;;;;471609;250;1188;-59
2021/11/30 18:19:10;;;;;;;;;;;21.60;28.50;;;;;;478741;247;967;-59
2021/11/30 18:21:12;;;;;;;;;;;21.60;28.60;;;;;;471595;248;2123;-58
2021/11/30 18:23:13;;;;;;;;;;;21.60;28.60;;;;;;478759;247;1161;-59
2021/11/30 18:25:14;;;;;;;;;;;21.50;28.60;;;;;;471768;251;982;-59
2021/11/30 18:27:16;;;;;;;;;;;21.60;28.60;;;;;;478784;247;1180;-60
2021/11/30 18:29:17;;;;;;;;;;;21.60;28.60;;;;;;471556;250;1059;-60
2021/11/30 18:31:18;;;;;;;;;;;21.60;28.60;;;;;;478764;247;1205;-59
2021/11/30 18:33:20;;;;;;;;;;;21.60;28.60;;;;;;471611;251;1219;-59
2021/11/30 18:35:21;;;;;;;;;;;21.60;28.60;;;;;;478921;247;1191;-59
2021/11/30 18:37:22;;;;;;;;;;;21.60;28.70;;;;;;471687;251;1262;-58
2021/11/30 18:39:24;;;;;;;;;;;21.60;28.70;;;;;;478893;247;1257;-59
2021/11/30 18:41:26;;;;;;;;;;;21.60;28.70;;;;;;471558;251;2191;-60
2021/11/30 18:43:27;;;;;;;;;;;21.60;28.60;;;;;;478875;247;1125;-59
2021/11/30 18:45:28;;;;;;;;;;;21.60;28.60;;;;;;471666;251;1150;-60
2021/11/30 18:47:30;;;;;;;;;;;21.60;28.70;;;;;;478778;247;1145;-60
2021/11/30 18:49:31;;;;;;;;;;;21.60;28.70;;;;;;471753;250;1033;-60
2021/11/30 18:51:32;;;;;;;;;;;21.60;28.80;;;;;;478732;247;1290;-59
2021/11/30 18:53:34;;;;;;;;;;;21.50;28.80;;;;;;471666;251;1331;-59
2021/11/30 18:55:36;;;;;;;;;;;21.50;28.80;;;;;;478773;247;998;-60
2021/11/30 18:57:36;;;;;;;;;;;21.60;28.80;;;;;;471577;251;1645;-59
2021/11/30 18:59:38;;;;;;;;;;;21.60;28.80;;;;;;478698;247;1122;-59
2021/11/30 19:01:39;;;;;;;;;;;21.60;28.80;;;;;;471589;251;2206;-59
2021/11/30 19:03:40;;;;;;;;;;;21.50;28.80;;;;;;478778;247;1074;-60
2021/11/30 19:05:43;;;;;;;;;;;21.50;28.90;;;;;;471740;251;1321;-59
2021/11/30 19:07:43;;;;;;;;;;;21.60;28.80;;;;;;478798;247;1402;-59
2021/11/30 19:09:45;;;;;;;;;;;21.60;28.80;;;;;;471758;251;1082;-59
2021/11/30 19:11:46;;;;;;;;;;;21.60;28.80;;;;;;478809;247;1607;-59
2021/11/30 19:13:48;;;;;;;;;;;21.60;28.80;;;;;;471653;251;1074;-59
2021/11/30 19:15:49;;;;;;;;;;;21.60;28.80;;;;;;478789;247;1300;-59
2021/11/30 19:17:51;;;;;;;;;;;21.60;28.80;;;;;;471654;251;1182;-59
2021/11/30 19:19:51;;;;;;;;;;;21.60;28.80;;;;;;478856;248;1529;-60
2021/11/30 19:21:53;;;;;;;;;;;21.60;28.80;;;;;;471855;251;2195;-59
2021/11/30 19:23:54;;;;;;;;;;;21.60;28.90;;;;;;478922;247;1136;-59
2021/11/30 19:25:55;;;;;;;;;;;21.60;28.90;;;;;;471724;251;1353;-58
2021/11/30 19:27:57;;;;;;;;;;;21.60;29.00;;;;;;478835;247;1081;-60
2021/11/30 19:29:58;;;;;;;;;;;21.50;28.90;;;;;;471690;251;1109;-59
2021/11/30 19:32:00;;;;;;;;;;;21.60;29.00;;;;;;478810;247;1183;-59
2021/11/30 19:34:01;;;;;;;;;;;21.60;29.00;;;;;;471753;251;1110;-59
2021/11/30 19:36:02;;;;;;;;;;;21.60;28.90;;;;;;478824;247;1417;-59
2021/11/30 19:38:07;;;;;;;;;;;21.60;29.00;;;;;;471703;251;1334;-59
2021/11/30 19:40:05;;;;;;;;;;;21.60;29.00;;;;;;478751;248;2342;-59
2021/11/30 19:42:06;;;;;;;;;;;21.60;29.00;;;;;;471632;251;2206;-59
2021/11/30 19:44:07;;;;;;;;;;;21.60;29.00;;;;;;478854;247;1031;-59
2021/11/30 19:46:09;;;;;;;;;;;21.70;29.00;;;;;;471760;250;1220;-59
2021/11/30 19:48:10;;;;;;;;;;;21.60;29.00;;;;;;478867;247;1213;-59
2021/11/30 19:50:12;;;;;;;;;;;21.60;29.00;;;;;;471715;251;1050;-59
2021/11/30 19:52:13;;;;;;;;;;;21.60;29.00;;;;;;478720;247;1220;-59
2021/11/30 19:54:14;;;;;;;;;;;21.60;29.10;;;;;;471807;251;1182;-59
2021/11/30 19:56:16;;;;;;;;;;;21.60;29.10;;;;;;478921;247;1222;-59
2021/11/30 19:58:18;;;;;;;;;;;21.60;29.20;;;;;;471709;251;1239;-59
2021/11/30 20:00:23;;;;;;;;;;;21.50;29.20;;;;;;478831;247;1011;-59
2021/11/30 20:06:59;;;;;;;;;;;21.60;29.20;;;;;;471772;251;1243;-59
2021/11/30 20:09:01;;;;;;;;;;;21.60;29.20;;;;;;479040;247;1215;-59
2021/11/30 20:11:03;;;;;;;;;;;21.60;29.20;;;;;;471634;251;1262;-59
2021/11/30 20:13:04;;;;;;;;;;;21.60;29.20;;;;;;478954;247;1175;-59
2021/11/30 20:15:22;;;;;;;;;;;21.60;29.20;;;;;;471735;251;1059;-59
2021/11/30 20:17:07;;;;;;;;;;;21.60;29.20;;;;;;478017;248;2338;-59
2021/11/30 20:19:09;;;;;;;;;;;21.60;29.20;;;;;;471867;251;1098;-59
2021/11/30 20:21:11;;;;;;;;;;;21.60;29.20;;;;;;478904;247;1029;-59
2021/11/30 20:23:12;;;;;;;;;;;21.60;29.20;;;;;;471777;251;2119;-59
2021/11/30 20:25:13;;;;;;;;;;;21.60;29.20;;;;;;478935;247;1143;-60
2021/11/30 20:27:15;;;;;;;;;;;21.60;29.20;;;;;;471763;251;1226;-58
2021/11/30 20:29:16;;;;;;;;;;;21.60;29.30;;;;;;478929;247;1125;-59
2021/11/30 20:31:17;;;;;;;;;;;21.70;29.20;;;;;;471626;251;1222;-60
2021/11/30 20:33:19;;;;;;;;;;;21.70;29.20;;;;;;478789;247;1248;-60
2021/11/30 20:40:16;;;;;;;;;;;21.60;29.30;;;;;;459101;258;1875;-59
2021/11/30 20:42:18;;;;;;;;;;;21.60;29.30;;;;;;470790;251;2190;-59
2021/11/30 20:44:19;;;;;;;;;;;21.60;29.30;;;;;;479001;247;1010;-59
2021/11/30 20:46:22;;;;;;;;;;;21.60;29.30;;;;;;471738;250;1400;-60
2021/11/30 20:48:23;;;;;;;;;;;21.60;29.30;;;;;;478779;248;2073;-59
2021/11/30 20:50:23;;;;;;;;;;;21.60;29.40;;;;;;471670;252;2337;-59
2021/11/30 20:52:25;;;;;;;;;;;21.50;29.40;;;;;;478895;247;1377;-59
2021/11/30 20:54:26;;;;;;;;;;;21.50;29.40;;;;;;471834;251;2004;-60
2021/11/30 20:56:27;;;;;;;;;;;21.60;29.40;;;;;;478804;248;1398;-59
2021/11/30 20:58:29;;;;;;;;;;;21.60;29.50;;;;;;471712;250;1230;-59
2021/11/30 21:00:30;;;;;;;;;;;21.60;29.30;;;;;;478905;247;1139;-59
2021/11/30 21:02:34;;;;;;;;;;;21.60;29.40;;;;;;471797;250;2123;-59
2021/11/30 21:04:37;;;;;;;;;;;21.60;29.40;;;;;;478950;247;1112;-58
2021/11/30 21:06:36;;;;;;;;;;;21.60;29.40;;;;;;471662;252;2194;-58
2021/11/30 21:08:38;;;;;;;;;;;21.60;29.40;;;;;;478981;247;945;-59
2021/11/30 21:10:42;;;;;;;;;;;21.60;29.50;;;;;;471807;251;1178;-59
2021/11/30 21:12:58;;;;;;;;;;;21.60;29.50;;;;;;478875;249;2170;-59
2021/11/30 21:15:01;;;;;;;;;;;21.50;29.50;;;;;;471811;251;1047;-59
2021/11/30 21:17:01;;;;;;;;;;;21.60;29.60;;;;;;478911;247;1351;-59
2021/11/30 21:19:02;;;;;;;;;;;21.60;29.60;;;;;;471820;250;1059;-59
2021/11/30 21:21:04;;;;;;;;;;;21.60;29.40;;;;;;478941;247;1161;-59
2021/11/30 21:23:06;;;;;;;;;;;21.60;29.60;;;;;;471832;251;2198;-58
2021/11/30 21:25:06;;;;;;;;;;;21.50;29.60;;;;;;479019;248;1448;-59
2021/11/30 21:27:09;;;;;;;;;;;21.60;29.50;;;;;;471807;250;1131;-59
2021/11/30 21:29:09;;;;;;;;;;;21.60;29.60;;;;;;478897;247;1438;-59
2021/11/30 21:31:11;;;;;;;;;;;21.60;29.60;;;;;;471644;251;1256;-58
2021/11/30 21:33:12;;;;;;;;;;;21.50;29.70;;;;;;478830;247;1130;-59
2021/11/30 21:35:14;;;;;;;;;;;21.50;29.60;;;;;;471844;251;986;-59
2021/11/30 21:37:19;;;;;;;;;;;21.60;29.60;;;;;;479021;247;1396;-59
2021/11/30 21:39:16;;;;;;;;;;;21.60;29.50;;;;;;471602;252;1519;-59
2021/11/30 21:41:19;;;;;;;;;;;21.70;29.50;;;;;;478971;247;1226;-58
2021/11/30 21:43:19;;;;;;;;;;;21.60;29.60;;;;;;471791;252;2182;-58
2021/11/30 21:45:20;;;;;;;;;;;21.60;29.60;;;;;;478903;247;961;-59
2021/11/30 21:47:22;;;;;;;;;;;21.60;29.60;;;;;;471775;251;1217;-59
2021/11/30 21:49:23;;;;;;;;;;;21.60;29.60;;;;;;478967;247;1118;-58
2021/11/30 21:51:26;;;;;;;;;;;21.60;29.70;;;;;;471773;251;1238;-59
2021/11/30 21:53:26;;;;;;;;;;;21.60;29.70;;;;;;478928;247;1382;-59
2021/11/30 21:55:27;;;;;;;;;;;21.60;29.70;;;;;;471817;250;1226;-59
2021/11/30 21:57:29;;;;;;;;;;;21.60;29.60;;;;;;478975;247;1123;-59
2021/11/30 21:59:31;;;;;;;;;;;21.70;29.60;;;;;;471856;250;2224;-59
2021/11/30 22:01:31;;;;;;;;;;;21.70;29.70;;;;;;478872;247;1288;-59
2021/11/30 22:03:33;;;;;;;;;;;21.70;29.70;;;;;;471754;251;2198;-59
2021/11/30 22:05:36;;;;;;;;;;;21.60;29.70;;;;;;478965;247;1112;-59
2021/11/30 22:07:37;;;;;;;;;;;21.60;29.80;;;;;;471857;250;1085;-59
2021/11/30 22:09:38;;;;;;;;;;;21.60;29.70;;;;;;478943;247;972;-58
2021/11/30 22:11:40;;;;;;;;;;;21.70;29.80;;;;;;471869;251;1137;-58
2021/11/30 22:13:41;;;;;;;;;;;21.60;29.80;;;;;;478991;247;1105;-59
2021/11/30 22:15:43;;;;;;;;;;;21.60;29.90;;;;;;471801;251;1207;-59
2021/11/30 22:17:45;;;;;;;;;;;21.60;29.90;;;;;;479020;247;964;-59
2021/11/30 22:19:47;;;;;;;;;;;21.60;29.90;;;;;;471779;252;1637;-59
2021/11/30 22:21:47;;;;;;;;;;;21.60;29.90;;;;;;478800;248;1560;-59
2021/11/30 22:23:48;;;;;;;;;;;21.60;29.90;;;;;;471899;251;2123;-58
2021/11/30 22:25:50;;;;;;;;;;;21.60;29.90;;;;;;478939;247;1309;-59
2021/11/30 22:27:52;;;;;;;;;;;21.60;29.90;;;;;;471899;251;1116;-59
2021/11/30 22:29:52;;;;;;;;;;;21.60;30.00;;;;;;478901;247;1452;-59
2021/11/30 22:31:54;;;;;;;;;;;21.60;30.00;;;;;;471828;251;1144;-59
2021/11/30 22:33:55;;;;;;;;;;;21.60;30.00;;;;;;478998;247;1120;-59
2021/11/30 22:35:56;;;;;;;;;;;21.60;30.00;;;;;;471764;251;1084;-58
2021/11/30 22:37:59;;;;;;;;;;;21.70;30.00;;;;;;478850;247;1297;-59
2021/11/30 22:40:01;;;;;;;;;;;21.70;30.00;;;;;;471822;251;1050;-59
2021/11/30 22:42:01;;;;;;;;;;;21.70;30.00;;;;;;478850;247;1313;-58
2021/11/30 22:44:03;;;;;;;;;;;21.70;30.00;;;;;;471774;251;2132;-59
2021/11/30 22:46:04;;;;;;;;;;;21.60;30.00;;;;;;478971;247;1332;-59
2021/11/30 22:48:05;;;;;;;;;;;21.60;30.00;;;;;;471799;251;1115;-58
2021/11/30 22:50:07;;;;;;;;;;;21.60;30.10;;;;;;478929;247;1034;-59
2021/11/30 22:52:08;;;;;;;;;;;21.60;30.10;;;;;;471785;251;1188;-59
2021/11/30 22:54:09;;;;;;;;;;;21.60;30.00;;;;;;478983;247;1041;-59